sensor_id;sensor_type;location;lat;lon;timestamp;P1;durP1;ratioP1;P2;durP2;ratioP2
72235;SDS011;60146;52.498;13.462;2023-05-10T00:00:26;6.43;;;3.77;;
72235;SDS011;60146;52.498;13.462;2023-05-10T00:02:51;8.13;;;3.97;;
72235;SDS011;60146;52.498;13.462;2023-05-10T00:05:17;8.20;;;3.70;;
72235;SDS011;60146;52.498;13.462;2023-05-10T00:07:42;7.97;;;3.80;;
72235;SDS011;60146;52.498;13.462;2023-05-10T00:10:09;7.53;;;4.00;;
72235;SDS011;60146;52.498;13.462;2023-05-10T00:12:35;5.97;;;3.67;;
72235;SDS011;60146;52.498;13.462;2023-05-10T00:15:01;7.50;;;4.17;;
72235;SDS011;60146;52.498;13.462;2023-05-10T00:17:26;8.00;;;4.03;;
72235;SDS011;60146;52.498;13.462;2023-05-10T00:19:51;10.10;;;3.90;;
72235;SDS011;60146;52.498;13.462;2023-05-10T00:22:17;9.20;;;4.10;;
72235;SDS011;60146;52.498;13.462;2023-05-10T00:24:42;9.53;;;3.83;;
72235;SDS011;60146;52.498;13.462;2023-05-10T00:27:07;10.03;;;4.13;;
72235;SDS011;60146;52.498;13.462;2023-05-10T00:29:33;6.10;;;3.80;;
72235;SDS011;60146;52.498;13.462;2023-05-10T00:31:58;8.80;;;4.10;;
72235;SDS011;60146;52.498;13.462;2023-05-10T00:34:24;8.07;;;4.00;;
72235;SDS011;60146;52.498;13.462;2023-05-10T00:36:49;6.30;;;4.20;;
72235;SDS011;60146;52.498;13.462;2023-05-10T00:39:15;10.87;;;4.53;;
72235;SDS011;60146;52.498;13.462;2023-05-10T00:41:40;5.60;;;3.60;;
72235;SDS011;60146;52.498;13.462;2023-05-10T00:44:05;9.33;;;4.00;;
72235;SDS011;60146;52.498;13.462;2023-05-10T00:46:31;7.43;;;3.87;;
72235;SDS011;60146;52.498;13.462;2023-05-10T00:48:56;5.67;;;3.60;;
72235;SDS011;60146;52.498;13.462;2023-05-10T00:51:22;5.70;;;3.83;;
72235;SDS011;60146;52.498;13.462;2023-05-10T00:53:48;8.23;;;4.00;;
72235;SDS011;60146;52.498;13.462;2023-05-10T00:56:14;6.80;;;4.10;;
72235;SDS011;60146;52.498;13.462;2023-05-10T00:58:42;8.37;;;4.00;;
72235;SDS011;60146;52.498;13.462;2023-05-10T01:01:07;7.00;;;3.90;;
72235;SDS011;60146;52.498;13.462;2023-05-10T01:03:34;10.30;;;4.17;;
72235;SDS011;60146;52.498;13.462;2023-05-10T01:06:00;5.67;;;3.67;;
72235;SDS011;60146;52.498;13.462;2023-05-10T01:08:25;6.50;;;3.70;;
72235;SDS011;60146;52.498;13.462;2023-05-10T01:10:51;7.57;;;3.93;;
72235;SDS011;60146;52.498;13.462;2023-05-10T01:13:25;8.30;;;4.10;;
72235;SDS011;60146;52.498;13.462;2023-05-10T01:15:57;6.03;;;3.85;;
72235;SDS011;60146;52.498;13.462;2023-05-10T01:18:24;8.00;;;4.00;;
72235;SDS011;60146;52.498;13.462;2023-05-10T01:20:55;8.50;;;3.97;;
72235;SDS011;60146;52.498;13.462;2023-05-10T01:34:30;6.70;;;3.70;;
72235;SDS011;60146;52.498;13.462;2023-05-10T01:37:11;5.97;;;4.07;;
72235;SDS011;60146;52.498;13.462;2023-05-10T01:39:44;6.67;;;4.00;;
72235;SDS011;60146;52.498;13.462;2023-05-10T01:42:33;6.60;;;3.93;;
72235;SDS011;60146;52.498;13.462;2023-05-10T01:45:26;7.93;;;4.10;;
72235;SDS011;60146;52.498;13.462;2023-05-10T01:48:06;8.30;;;4.10;;
72235;SDS011;60146;52.498;13.462;2023-05-10T01:50:31;8.30;;;4.10;;
72235;SDS011;60146;52.498;13.462;2023-05-10T01:52:57;7.60;;;4.03;;
72235;SDS011;60146;52.498;13.462;2023-05-10T01:55:26;7.67;;;4.13;;
72235;SDS011;60146;52.498;13.462;2023-05-10T01:58:40;5.50;;;3.67;;
72235;SDS011;60146;52.498;13.462;2023-05-10T02:01:07;7.07;;;3.80;;
72235;SDS011;60146;52.498;13.462;2023-05-10T02:03:33;7.53;;;3.77;;
72235;SDS011;60146;52.498;13.462;2023-05-10T02:06:01;7.40;;;4.13;;
72235;SDS011;60146;52.498;13.462;2023-05-10T02:08:27;10.30;;;4.13;;
72235;SDS011;60146;52.498;13.462;2023-05-10T02:10:54;10.13;;;4.40;;
72235;SDS011;60146;52.498;13.462;2023-05-10T02:13:21;8.60;;;3.83;;
72235;SDS011;60146;52.498;13.462;2023-05-10T02:15:49;6.33;;;3.83;;
72235;SDS011;60146;52.498;13.462;2023-05-10T02:18:15;8.07;;;3.90;;
72235;SDS011;60146;52.498;13.462;2023-05-10T02:20:42;8.27;;;4.70;;
72235;SDS011;60146;52.498;13.462;2023-05-10T02:23:10;10.57;;;4.00;;
72235;SDS011;60146;52.498;13.462;2023-05-10T02:25:36;10.30;;;3.80;;
72235;SDS011;60146;52.498;13.462;2023-05-10T02:28:04;7.37;;;4.17;;
72235;SDS011;60146;52.498;13.462;2023-05-10T02:30:31;7.33;;;3.97;;
72235;SDS011;60146;52.498;13.462;2023-05-10T02:32:58;8.53;;;3.70;;
72235;SDS011;60146;52.498;13.462;2023-05-10T02:35:24;8.50;;;4.13;;
72235;SDS011;60146;52.498;13.462;2023-05-10T02:37:51;7.37;;;4.07;;
72235;SDS011;60146;52.498;13.462;2023-05-10T02:40:17;9.80;;;4.30;;
72235;SDS011;60146;52.498;13.462;2023-05-10T02:42:44;8.67;;;4.13;;
72235;SDS011;60146;52.498;13.462;2023-05-10T02:45:14;9.03;;;3.97;;
72235;SDS011;60146;52.498;13.462;2023-05-10T02:47:43;7.80;;;3.65;;
72235;SDS011;60146;52.498;13.462;2023-05-10T02:50:08;10.63;;;3.73;;
72235;SDS011;60146;52.498;13.462;2023-05-10T02:52:57;7.53;;;3.60;;
72235;SDS011;60146;52.498;13.462;2023-05-10T02:55:25;7.15;;;3.97;;
72235;SDS011;60146;52.498;13.462;2023-05-10T02:57:56;8.10;;;3.57;;
72235;SDS011;60146;52.498;13.462;2023-05-10T03:00:24;6.30;;;3.60;;
72235;SDS011;60146;52.498;13.462;2023-05-10T03:02:50;6.33;;;3.80;;
72235;SDS011;60146;52.498;13.462;2023-05-10T03:05:15;10.00;;;3.70;;
72235;SDS011;60146;52.498;13.462;2023-05-10T03:07:40;5.90;;;3.50;;
72235;SDS011;60146;52.498;13.462;2023-05-10T03:10:06;7.47;;;3.77;;
72235;SDS011;60146;52.498;13.462;2023-05-10T03:12:47;6.27;;;3.63;;
72235;SDS011;60146;52.498;13.462;2023-05-10T03:15:18;6.00;;;3.40;;
72235;SDS011;60146;52.498;13.462;2023-05-10T03:17:55;7.83;;;3.57;;
72235;SDS011;60146;52.498;13.462;2023-05-10T03:21:10;9.23;;;3.73;;
72235;SDS011;60146;52.498;13.462;2023-05-10T03:23:30;8.33;;;3.50;;
72235;SDS011;60146;52.498;13.462;2023-05-10T03:26:06;7.93;;;3.97;;
72235;SDS011;60146;52.498;13.462;2023-05-10T03:28:33;6.30;;;3.43;;
72235;SDS011;60146;52.498;13.462;2023-05-10T03:31:00;8.93;;;4.00;;
72235;SDS011;60146;52.498;13.462;2023-05-10T03:33:26;6.77;;;3.60;;
72235;SDS011;60146;52.498;13.462;2023-05-10T03:35:52;6.80;;;3.50;;
72235;SDS011;60146;52.498;13.462;2023-05-10T03:38:17;7.60;;;3.70;;
72235;SDS011;60146;52.498;13.462;2023-05-10T03:40:42;10.90;;;3.90;;
72235;SDS011;60146;52.498;13.462;2023-05-10T03:43:08;8.53;;;3.80;;
72235;SDS011;60146;52.498;13.462;2023-05-10T03:45:33;7.60;;;4.00;;
72235;SDS011;60146;52.498;13.462;2023-05-10T03:47:58;7.30;;;3.40;;
72235;SDS011;60146;52.498;13.462;2023-05-10T03:50:24;6.47;;;3.43;;
72235;SDS011;60146;52.498;13.462;2023-05-10T03:52:49;7.50;;;3.40;;
72235;SDS011;60146;52.498;13.462;2023-05-10T03:55:15;7.03;;;3.40;;
72235;SDS011;60146;52.498;13.462;2023-05-10T03:57:41;17.77;;;4.43;;
72235;SDS011;60146;52.498;13.462;2023-05-10T04:00:07;8.40;;;3.60;;
72235;SDS011;60146;52.498;13.462;2023-05-10T04:02:33;5.87;;;3.50;;
72235;SDS011;60146;52.498;13.462;2023-05-10T04:04:58;11.33;;;3.33;;
72235;SDS011;60146;52.498;13.462;2023-05-10T04:07:23;9.03;;;3.60;;
72235;SDS011;60146;52.498;13.462;2023-05-10T04:09:49;6.03;;;3.30;;
72235;SDS011;60146;52.498;13.462;2023-05-10T04:12:14;11.40;;;4.20;;
72235;SDS011;60146;52.498;13.462;2023-05-10T04:14:39;11.27;;;3.73;;
72235;SDS011;60146;52.498;13.462;2023-05-10T04:17:05;7.60;;;3.67;;
72235;SDS011;60146;52.498;13.462;2023-05-10T04:19:31;9.97;;;3.93;;
72235;SDS011;60146;52.498;13.462;2023-05-10T04:21:56;9.47;;;3.53;;
72235;SDS011;60146;52.498;13.462;2023-05-10T04:24:23;10.37;;;3.57;;
72235;SDS011;60146;52.498;13.462;2023-05-10T04:26:48;11.23;;;4.00;;
72235;SDS011;60146;52.498;13.462;2023-05-10T04:29:14;6.47;;;3.80;;
72235;SDS011;60146;52.498;13.462;2023-05-10T04:31:39;5.10;;;3.23;;
72235;SDS011;60146;52.498;13.462;2023-05-10T04:34:04;16.07;;;3.60;;
72235;SDS011;60146;52.498;13.462;2023-05-10T04:36:30;8.80;;;3.10;;
72235;SDS011;60146;52.498;13.462;2023-05-10T04:38:57;8.97;;;3.67;;
72235;SDS011;60146;52.498;13.462;2023-05-10T04:41:22;10.27;;;3.40;;
72235;SDS011;60146;52.498;13.462;2023-05-10T04:43:48;7.23;;;3.83;;
72235;SDS011;60146;52.498;13.462;2023-05-10T04:46:14;7.00;;;3.50;;
72235;SDS011;60146;52.498;13.462;2023-05-10T04:48:39;11.70;;;3.77;;
72235;SDS011;60146;52.498;13.462;2023-05-10T04:51:05;5.93;;;3.37;;
72235;SDS011;60146;52.498;13.462;2023-05-10T04:53:31;10.73;;;4.47;;
72235;SDS011;60146;52.498;13.462;2023-05-10T04:55:57;7.30;;;3.60;;
72235;SDS011;60146;52.498;13.462;2023-05-10T04:58:22;6.20;;;3.07;;
72235;SDS011;60146;52.498;13.462;2023-05-10T05:00:47;6.70;;;3.40;;
72235;SDS011;60146;52.498;13.462;2023-05-10T05:03:13;8.73;;;3.40;;
72235;SDS011;60146;52.498;13.462;2023-05-10T05:05:38;6.87;;;3.43;;
72235;SDS011;60146;52.498;13.462;2023-05-10T05:08:04;9.17;;;3.30;;
72235;SDS011;60146;52.498;13.462;2023-05-10T05:10:29;4.73;;;2.90;;
72235;SDS011;60146;52.498;13.462;2023-05-10T05:12:54;7.93;;;3.40;;
72235;SDS011;60146;52.498;13.462;2023-05-10T05:15:20;5.97;;;3.00;;
72235;SDS011;60146;52.498;13.462;2023-05-10T05:17:45;6.80;;;3.20;;
72235;SDS011;60146;52.498;13.462;2023-05-10T05:20:11;8.20;;;2.80;;
72235;SDS011;60146;52.498;13.462;2023-05-10T05:22:37;5.03;;;2.70;;
72235;SDS011;60146;52.498;13.462;2023-05-10T05:25:02;9.20;;;3.20;;
72235;SDS011;60146;52.498;13.462;2023-05-10T05:27:28;7.83;;;3.30;;
72235;SDS011;60146;52.498;13.462;2023-05-10T05:29:57;8.23;;;2.83;;
72235;SDS011;60146;52.498;13.462;2023-05-10T05:32:23;9.33;;;3.10;;
72235;SDS011;60146;52.498;13.462;2023-05-10T05:34:49;6.53;;;3.20;;
72235;SDS011;60146;52.498;13.462;2023-05-10T05:37:15;7.70;;;3.37;;
72235;SDS011;60146;52.498;13.462;2023-05-10T05:39:42;7.60;;;3.77;;
72235;SDS011;60146;52.498;13.462;2023-05-10T05:42:11;8.87;;;3.60;;
72235;SDS011;60146;52.498;13.462;2023-05-10T05:44:37;7.18;;;2.83;;
72235;SDS011;60146;52.498;13.462;2023-05-10T05:47:03;6.07;;;2.87;;
72235;SDS011;60146;52.498;13.462;2023-05-10T05:49:29;7.27;;;3.10;;
72235;SDS011;60146;52.498;13.462;2023-05-10T05:51:58;4.67;;;2.60;;
72235;SDS011;60146;52.498;13.462;2023-05-10T05:54:23;6.43;;;2.47;;
72235;SDS011;60146;52.498;13.462;2023-05-10T05:56:49;6.00;;;2.40;;
72235;SDS011;60146;52.498;13.462;2023-05-10T05:59:14;5.83;;;2.70;;
72235;SDS011;60146;52.498;13.462;2023-05-10T06:01:39;3.87;;;2.20;;
72235;SDS011;60146;52.498;13.462;2023-05-10T06:04:05;11.10;;;2.90;;
72235;SDS011;60146;52.498;13.462;2023-05-10T06:06:30;6.33;;;2.53;;
72235;SDS011;60146;52.498;13.462;2023-05-10T06:08:57;4.77;;;2.40;;
72235;SDS011;60146;52.498;13.462;2023-05-10T06:11:22;8.13;;;2.40;;
72235;SDS011;60146;52.498;13.462;2023-05-10T06:13:47;6.83;;;2.23;;
72235;SDS011;60146;52.498;13.462;2023-05-10T06:16:13;6.97;;;2.20;;
72235;SDS011;60146;52.498;13.462;2023-05-10T06:18:38;6.20;;;2.00;;
72235;SDS011;60146;52.498;13.462;2023-05-10T06:21:04;7.60;;;2.47;;
72235;SDS011;60146;52.498;13.462;2023-05-10T06:23:29;4.70;;;2.60;;
72235;SDS011;60146;52.498;13.462;2023-05-10T06:25:55;6.00;;;2.30;;
72235;SDS011;60146;52.498;13.462;2023-05-10T06:28:20;8.50;;;2.30;;
72235;SDS011;60146;52.498;13.462;2023-05-10T06:30:46;6.20;;;2.30;;
72235;SDS011;60146;52.498;13.462;2023-05-10T06:33:11;6.30;;;2.40;;
72235;SDS011;60146;52.498;13.462;2023-05-10T06:35:36;8.03;;;2.30;;
72235;SDS011;60146;52.498;13.462;2023-05-10T06:38:02;11.17;;;2.30;;
72235;SDS011;60146;52.498;13.462;2023-05-10T06:40:27;6.57;;;2.47;;
72235;SDS011;60146;52.498;13.462;2023-05-10T06:42:52;7.37;;;2.43;;
72235;SDS011;60146;52.498;13.462;2023-05-10T06:45:18;8.67;;;2.20;;
72235;SDS011;60146;52.498;13.462;2023-05-10T06:47:43;8.07;;;2.10;;
72235;SDS011;60146;52.498;13.462;2023-05-10T06:50:09;6.43;;;2.17;;
72235;SDS011;60146;52.498;13.462;2023-05-10T06:52:36;4.87;;;2.13;;
72235;SDS011;60146;52.498;13.462;2023-05-10T06:55:02;12.33;;;2.63;;
72235;SDS011;60146;52.498;13.462;2023-05-10T06:57:28;4.93;;;2.03;;
72235;SDS011;60146;52.498;13.462;2023-05-10T06:59:53;5.33;;;2.30;;
72235;SDS011;60146;52.498;13.462;2023-05-10T07:02:20;4.13;;;2.00;;
72235;SDS011;60146;52.498;13.462;2023-05-10T07:04:46;4.43;;;2.00;;
72235;SDS011;60146;52.498;13.462;2023-05-10T07:07:12;5.47;;;2.40;;
72235;SDS011;60146;52.498;13.462;2023-05-10T07:09:38;3.93;;;2.30;;
72235;SDS011;60146;52.498;13.462;2023-05-10T07:12:03;4.37;;;2.37;;
72235;SDS011;60146;52.498;13.462;2023-05-10T07:14:29;3.33;;;2.03;;
72235;SDS011;60146;52.498;13.462;2023-05-10T07:16:54;4.40;;;2.20;;
72235;SDS011;60146;52.498;13.462;2023-05-10T07:19:20;8.40;;;2.43;;
72235;SDS011;60146;52.498;13.462;2023-05-10T07:21:45;12.53;;;2.50;;
72235;SDS011;60146;52.498;13.462;2023-05-10T07:24:11;3.93;;;2.50;;
72235;SDS011;60146;52.498;13.462;2023-05-10T07:26:36;7.33;;;2.50;;
72235;SDS011;60146;52.498;13.462;2023-05-10T07:29:01;4.13;;;2.10;;
72235;SDS011;60146;52.498;13.462;2023-05-10T07:31:27;5.13;;;2.10;;
72235;SDS011;60146;52.498;13.462;2023-05-10T07:33:52;7.93;;;2.27;;
72235;SDS011;60146;52.498;13.462;2023-05-10T07:36:18;7.30;;;2.10;;
72235;SDS011;60146;52.498;13.462;2023-05-10T07:38:43;5.97;;;2.20;;
72235;SDS011;60146;52.498;13.462;2023-05-10T07:41:09;4.83;;;2.30;;
72235;SDS011;60146;52.498;13.462;2023-05-10T07:43:34;6.53;;;2.20;;
72235;SDS011;60146;52.498;13.462;2023-05-10T07:46:00;8.17;;;2.23;;
72235;SDS011;60146;52.498;13.462;2023-05-10T07:48:25;2.67;;;1.90;;
72235;SDS011;60146;52.498;13.462;2023-05-10T07:50:51;4.00;;;2.10;;
72235;SDS011;60146;52.498;13.462;2023-05-10T07:53:16;3.93;;;2.37;;
72235;SDS011;60146;52.498;13.462;2023-05-10T07:55:43;7.30;;;2.37;;
72235;SDS011;60146;52.498;13.462;2023-05-10T07:58:08;6.57;;;2.10;;
72235;SDS011;60146;52.498;13.462;2023-05-10T08:00:34;4.23;;;2.40;;
72235;SDS011;60146;52.498;13.462;2023-05-10T08:02:59;3.93;;;2.00;;
72235;SDS011;60146;52.498;13.462;2023-05-10T08:05:25;5.33;;;2.37;;
72235;SDS011;60146;52.498;13.462;2023-05-10T08:07:50;8.80;;;2.40;;
72235;SDS011;60146;52.498;13.462;2023-05-10T08:10:16;4.33;;;1.90;;
72235;SDS011;60146;52.498;13.462;2023-05-10T08:12:41;3.40;;;2.00;;
72235;SDS011;60146;52.498;13.462;2023-05-10T08:15:07;3.20;;;1.90;;
72235;SDS011;60146;52.498;13.462;2023-05-10T08:17:33;3.93;;;1.80;;
72235;SDS011;60146;52.498;13.462;2023-05-10T08:19:58;5.20;;;2.10;;
72235;SDS011;60146;52.498;13.462;2023-05-10T08:22:24;3.47;;;1.93;;
72235;SDS011;60146;52.498;13.462;2023-05-10T08:24:49;9.43;;;1.97;;
72235;SDS011;60146;52.498;13.462;2023-05-10T08:27:14;7.53;;;2.00;;
72235;SDS011;60146;52.498;13.462;2023-05-10T08:29:40;11.33;;;3.20;;
72235;SDS011;60146;52.498;13.462;2023-05-10T08:32:05;5.77;;;2.50;;
72235;SDS011;60146;52.498;13.462;2023-05-10T08:34:31;6.37;;;2.57;;
72235;SDS011;60146;52.498;13.462;2023-05-10T08:36:56;23.30;;;3.53;;
72235;SDS011;60146;52.498;13.462;2023-05-10T08:39:22;5.87;;;2.37;;
72235;SDS011;60146;52.498;13.462;2023-05-10T08:41:48;8.50;;;2.67;;
72235;SDS011;60146;52.498;13.462;2023-05-10T08:44:16;9.13;;;2.90;;
72235;SDS011;60146;52.498;13.462;2023-05-10T08:46:44;15.88;;;3.25;;
72235;SDS011;60146;52.498;13.462;2023-05-10T08:49:13;7.28;;;2.20;;
72235;SDS011;60146;52.498;13.462;2023-05-10T08:51:40;4.75;;;2.22;;
72235;SDS011;60146;52.498;13.462;2023-05-10T08:54:10;6.78;;;2.40;;
72235;SDS011;60146;52.498;13.462;2023-05-10T08:56:36;2.92;;;1.73;;
72235;SDS011;60146;52.498;13.462;2023-05-10T08:59:01;9.82;;;2.40;;
72235;SDS011;60146;52.498;13.462;2023-05-10T09:01:27;11.85;;;2.50;;
72235;SDS011;60146;52.498;13.462;2023-05-10T09:03:54;4.22;;;1.90;;
72235;SDS011;60146;52.498;13.462;2023-05-10T09:06:20;5.32;;;2.00;;
72235;SDS011;60146;52.498;13.462;2023-05-10T09:08:46;3.58;;;2.00;;
72235;SDS011;60146;52.498;13.462;2023-05-10T09:11:12;6.30;;;2.17;;
72235;SDS011;60146;52.498;13.462;2023-05-10T09:13:38;11.90;;;2.42;;
72235;SDS011;60146;52.498;13.462;2023-05-10T09:16:04;3.40;;;1.90;;
72235;SDS011;60146;52.498;13.462;2023-05-10T09:18:30;6.03;;;2.40;;
72235;SDS011;60146;52.498;13.462;2023-05-10T09:20:55;23.85;;;2.88;;
72235;SDS011;60146;52.498;13.462;2023-05-10T09:23:21;6.47;;;2.30;;
72235;SDS011;60146;52.498;13.462;2023-05-10T09:25:46;5.13;;;1.65;;
72235;SDS011;60146;52.498;13.462;2023-05-10T09:28:12;5.03;;;2.00;;
72235;SDS011;60146;52.498;13.462;2023-05-10T09:30:37;6.28;;;2.20;;
72235;SDS011;60146;52.498;13.462;2023-05-10T09:33:03;7.45;;;1.98;;
72235;SDS011;60146;52.498;13.462;2023-05-10T09:35:29;6.03;;;2.20;;
72235;SDS011;60146;52.498;13.462;2023-05-10T09:37:59;4.53;;;2.00;;
72235;SDS011;60146;52.498;13.462;2023-05-10T09:40:27;8.37;;;2.37;;
72235;SDS011;60146;52.498;13.462;2023-05-10T09:42:54;6.22;;;1.70;;
72235;SDS011;60146;52.498;13.462;2023-05-10T09:45:33;2.63;;;1.98;;
72235;SDS011;60146;52.498;13.462;2023-05-10T09:48:03;3.42;;;2.10;;
72235;SDS011;60146;52.498;13.462;2023-05-10T09:50:29;5.35;;;2.00;;
72235;SDS011;60146;52.498;13.462;2023-05-10T09:52:56;6.10;;;2.20;;
72235;SDS011;60146;52.498;13.462;2023-05-10T09:55:42;4.15;;;2.22;;
72235;SDS011;60146;52.498;13.462;2023-05-10T09:58:14;3.33;;;1.80;;
72235;SDS011;60146;52.498;13.462;2023-05-10T10:00:41;4.55;;;2.15;;
72235;SDS011;60146;52.498;13.462;2023-05-10T10:03:15;3.67;;;1.98;;
72235;SDS011;60146;52.498;13.462;2023-05-10T10:05:44;5.95;;;1.98;;
72235;SDS011;60146;52.498;13.462;2023-05-10T10:08:12;3.92;;;2.17;;
72235;SDS011;60146;52.498;13.462;2023-05-10T10:10:38;4.97;;;2.00;;
72235;SDS011;60146;52.498;13.462;2023-05-10T10:13:05;1.95;;;1.55;;
72235;SDS011;60146;52.498;13.462;2023-05-10T10:15:31;4.55;;;2.05;;
72235;SDS011;60146;52.498;13.462;2023-05-10T10:17:57;2.83;;;1.95;;
72235;SDS011;60146;52.498;13.462;2023-05-10T10:20:24;20.98;;;2.75;;
72235;SDS011;60146;52.498;13.462;2023-05-10T10:22:50;10.02;;;2.20;;
72235;SDS011;60146;52.498;13.462;2023-05-10T10:25:15;5.95;;;2.20;;
72235;SDS011;60146;52.498;13.462;2023-05-10T10:30:19;6.47;;;2.00;;
72235;SDS011;60146;52.498;13.462;2023-05-10T10:35:31;3.67;;;1.77;;
72235;SDS011;60146;52.498;13.462;2023-05-10T10:37:58;6.00;;;2.13;;
72235;SDS011;60146;52.498;13.462;2023-05-10T10:40:27;2.33;;;2.00;;
72235;SDS011;60146;52.498;13.462;2023-05-10T10:42:54;5.13;;;2.40;;
72235;SDS011;60146;52.498;13.462;2023-05-10T10:45:20;13.38;;;2.50;;
72235;SDS011;60146;52.498;13.462;2023-05-10T10:47:47;3.65;;;2.15;;
72235;SDS011;60146;52.498;13.462;2023-05-10T10:50:13;6.90;;;2.20;;
72235;SDS011;60146;52.498;13.462;2023-05-10T10:52:42;4.18;;;2.15;;
72235;SDS011;60146;52.498;13.462;2023-05-10T10:55:12;2.65;;;1.77;;
72235;SDS011;60146;52.498;13.462;2023-05-10T11:00:18;9.02;;;2.40;;
72235;SDS011;60146;52.498;13.462;2023-05-10T11:02:44;48.60;;;4.80;;
72235;SDS011;60146;52.498;13.462;2023-05-10T11:07:58;6.70;;;2.15;;
72235;SDS011;60146;52.498;13.462;2023-05-10T11:10:25;6.72;;;1.85;;
72235;SDS011;60146;52.498;13.462;2023-05-10T11:15:40;6.53;;;1.90;;
72235;SDS011;60146;52.498;13.462;2023-05-10T11:18:20;5.72;;;2.13;;
72235;SDS011;60146;52.498;13.462;2023-05-10T11:20:52;3.58;;;1.80;;
72235;SDS011;60146;52.498;13.462;2023-05-10T11:23:21;1.95;;;1.75;;
72235;SDS011;60146;52.498;13.462;2023-05-10T11:25:47;5.75;;;1.92;;
72235;SDS011;60146;52.498;13.462;2023-05-10T11:28:13;9.30;;;2.10;;
72235;SDS011;60146;52.498;13.462;2023-05-10T11:30:40;5.22;;;1.95;;
72235;SDS011;60146;52.498;13.462;2023-05-10T11:33:06;5.13;;;1.98;;
72235;SDS011;60146;52.498;13.462;2023-05-10T11:35:38;8.27;;;2.25;;
72235;SDS011;60146;52.498;13.462;2023-05-10T11:38:08;4.88;;;1.95;;
72235;SDS011;60146;52.498;13.462;2023-05-10T11:40:35;6.70;;;2.10;;
72235;SDS011;60146;52.498;13.462;2023-05-10T11:43:01;12.68;;;2.90;;
72235;SDS011;60146;52.498;13.462;2023-05-10T11:45:27;5.05;;;2.15;;
72235;SDS011;60146;52.498;13.462;2023-05-10T11:47:54;4.53;;;1.70;;
72235;SDS011;60146;52.498;13.462;2023-05-10T11:52:54;4.05;;;1.90;;
72235;SDS011;60146;52.498;13.462;2023-05-10T11:55:21;4.00;;;1.98;;
72235;SDS011;60146;52.498;13.462;2023-05-10T11:57:51;5.90;;;2.00;;
72235;SDS011;60146;52.498;13.462;2023-05-10T12:00:17;7.38;;;2.00;;
72235;SDS011;60146;52.498;13.462;2023-05-10T12:02:42;6.65;;;2.40;;
72235;SDS011;60146;52.498;13.462;2023-05-10T12:05:08;5.82;;;2.10;;
72235;SDS011;60146;52.498;13.462;2023-05-10T12:07:34;2.95;;;1.90;;
72235;SDS011;60146;52.498;13.462;2023-05-10T12:10:07;4.90;;;1.80;;
72235;SDS011;60146;52.498;13.462;2023-05-10T12:12:40;3.35;;;1.80;;
72235;SDS011;60146;52.498;13.462;2023-05-10T12:15:19;14.20;;;2.13;;
72235;SDS011;60146;52.498;13.462;2023-05-10T12:17:46;6.30;;;1.80;;
72235;SDS011;60146;52.498;13.462;2023-05-10T12:20:19;5.10;;;1.80;;
72235;SDS011;60146;52.498;13.462;2023-05-10T12:22:55;3.28;;;1.60;;
72235;SDS011;60146;52.498;13.462;2023-05-10T12:25:23;4.70;;;1.80;;
72235;SDS011;60146;52.498;13.462;2023-05-10T12:27:55;5.85;;;1.92;;
72235;SDS011;60146;52.498;13.462;2023-05-10T12:30:25;4.97;;;1.97;;
72235;SDS011;60146;52.498;13.462;2023-05-10T12:32:52;4.63;;;2.47;;
72235;SDS011;60146;52.498;13.462;2023-05-10T12:35:18;8.13;;;2.08;;
72235;SDS011;60146;52.498;13.462;2023-05-10T12:37:49;3.50;;;2.10;;
72235;SDS011;60146;52.498;13.462;2023-05-10T12:40:15;4.32;;;2.17;;
72235;SDS011;60146;52.498;13.462;2023-05-10T12:42:40;6.60;;;1.77;;
72235;SDS011;60146;52.498;13.462;2023-05-10T12:45:06;6.82;;;2.10;;
72235;SDS011;60146;52.498;13.462;2023-05-10T12:47:33;4.75;;;1.65;;
72235;SDS011;60146;52.498;13.462;2023-05-10T12:49:59;3.25;;;1.95;;
72235;SDS011;60146;52.498;13.462;2023-05-10T12:52:26;5.20;;;1.88;;
72235;SDS011;60146;52.498;13.462;2023-05-10T12:54:52;5.20;;;1.90;;
72235;SDS011;60146;52.498;13.462;2023-05-10T12:57:20;5.85;;;1.90;;
72235;SDS011;60146;52.498;13.462;2023-05-10T12:59:45;3.30;;;1.80;;
72235;SDS011;60146;52.498;13.462;2023-05-10T13:02:11;4.90;;;1.95;;
72235;SDS011;60146;52.498;13.462;2023-05-10T13:04:36;2.13;;;1.70;;
72235;SDS011;60146;52.498;13.462;2023-05-10T13:07:05;4.35;;;1.90;;
72235;SDS011;60146;52.498;13.462;2023-05-10T13:09:31;3.13;;;2.15;;
72235;SDS011;60146;52.498;13.462;2023-05-10T13:11:56;5.53;;;1.90;;
72235;SDS011;60146;52.498;13.462;2023-05-10T13:14:22;1.92;;;1.45;;
72235;SDS011;60146;52.498;13.462;2023-05-10T13:16:47;3.40;;;1.70;;
72235;SDS011;60146;52.498;13.462;2023-05-10T13:19:13;3.60;;;2.00;;
72235;SDS011;60146;52.498;13.462;2023-05-10T13:21:39;6.57;;;1.80;;
72235;SDS011;60146;52.498;13.462;2023-05-10T13:24:06;5.95;;;1.80;;
72235;SDS011;60146;52.498;13.462;2023-05-10T13:26:32;9.40;;;2.38;;
72235;SDS011;60146;52.498;13.462;2023-05-10T13:28:57;15.57;;;3.13;;
72235;SDS011;60146;52.498;13.462;2023-05-10T13:31:23;2.45;;;1.70;;
72235;SDS011;60146;52.498;13.462;2023-05-10T13:33:48;15.73;;;2.65;;
72235;SDS011;60146;52.498;13.462;2023-05-10T13:36:13;9.48;;;2.25;;
72235;SDS011;60146;52.498;13.462;2023-05-10T13:38:39;6.57;;;1.73;;
72235;SDS011;60146;52.498;13.462;2023-05-10T13:41:05;6.57;;;1.90;;
72235;SDS011;60146;52.498;13.462;2023-05-10T13:43:30;1.85;;;1.42;;
72235;SDS011;60146;52.498;13.462;2023-05-10T13:45:55;3.45;;;1.92;;
72235;SDS011;60146;52.498;13.462;2023-05-10T13:48:21;3.05;;;1.73;;
72235;SDS011;60146;52.498;13.462;2023-05-10T13:50:46;6.80;;;1.70;;
72235;SDS011;60146;52.498;13.462;2023-05-10T13:53:12;5.78;;;1.98;;
72235;SDS011;60146;52.498;13.462;2023-05-10T13:55:37;4.32;;;1.70;;
72235;SDS011;60146;52.498;13.462;2023-05-10T13:58:03;22.13;;;3.17;;
72235;SDS011;60146;52.498;13.462;2023-05-10T14:00:28;2.83;;;1.50;;
72235;SDS011;60146;52.498;13.462;2023-05-10T14:02:54;6.03;;;2.05;;
72235;SDS011;60146;52.498;13.462;2023-05-10T14:05:19;3.80;;;2.15;;
72235;SDS011;60146;52.498;13.462;2023-05-10T14:07:45;4.38;;;1.90;;
72235;SDS011;60146;52.498;13.462;2023-05-10T14:10:11;2.92;;;1.60;;
72235;SDS011;60146;52.498;13.462;2023-05-10T14:12:36;4.03;;;1.70;;
72235;SDS011;60146;52.498;13.462;2023-05-10T14:15:02;5.43;;;1.95;;
72235;SDS011;60146;52.498;13.462;2023-05-10T14:17:27;4.10;;;2.13;;
72235;SDS011;60146;52.498;13.462;2023-05-10T14:19:53;2.58;;;1.88;;
72235;SDS011;60146;52.498;13.462;2023-05-10T14:22:19;2.08;;;1.80;;
72235;SDS011;60146;52.498;13.462;2023-05-10T14:24:44;3.00;;;1.60;;
72235;SDS011;60146;52.498;13.462;2023-05-10T14:27:12;5.10;;;1.60;;
72235;SDS011;60146;52.498;13.462;2023-05-10T14:29:37;4.18;;;1.80;;
72235;SDS011;60146;52.498;13.462;2023-05-10T14:32:03;3.83;;;2.15;;
72235;SDS011;60146;52.498;13.462;2023-05-10T14:34:28;4.45;;;1.80;;
72235;SDS011;60146;52.498;13.462;2023-05-10T14:36:54;2.60;;;1.60;;
72235;SDS011;60146;52.498;13.462;2023-05-10T14:39:20;4.50;;;1.50;;
72235;SDS011;60146;52.498;13.462;2023-05-10T14:41:45;16.33;;;2.40;;
72235;SDS011;60146;52.498;13.462;2023-05-10T14:44:12;2.83;;;1.70;;
72235;SDS011;60146;52.498;13.462;2023-05-10T14:46:38;2.83;;;1.63;;
72235;SDS011;60146;52.498;13.462;2023-05-10T14:49:04;3.72;;;1.73;;
72235;SDS011;60146;52.498;13.462;2023-05-10T14:51:29;2.78;;;1.58;;
72235;SDS011;60146;52.498;13.462;2023-05-10T14:53:55;4.57;;;1.63;;
72235;SDS011;60146;52.498;13.462;2023-05-10T14:56:21;3.20;;;1.60;;
72235;SDS011;60146;52.498;13.462;2023-05-10T14:58:47;2.50;;;1.65;;